首页
METAR-TAF:

METAR-TAF

机场 :

皮耶什佳尼, 斯洛伐克

纬度: 48-37-30N, 经度: 017-49-43E, 海拔: 163米

当前天气观测

该预报发布于25分钟前的20:30 UTC
风速5节,风向
温度 20°C
湿度 73%
气压 1025 hPa
能见度10公里或以上

METAR: LZPP 222030Z AUTO 35005KT 9999 OVC034/// 20/15 Q1025

时间: 22:55 (20:55 UTC)

预报

该预报发布于3小时和55分钟前的17:00 UTC
预报有效从22日的 18点(UTC)到 23日的 03点(UTC)
风速5节,风向
能见度10公里或以上
1500米以下无云,无积雨云
成为
从 22日的 18点(UTC)到 22日的 20点(UTC)
风速2节,风向多变
几率 40% :
短暂存在
从 22日的 18点(UTC)到 22日的 23点(UTC)
能见度10公里或以上
散云层高于4200英尺
多云层高于6000英尺
小阵雨

TAF: LZPP 221700Z 2218/2303 35005KT CAVOK BECMG 2218/2220 VRB02KT PROB40 TEMPO 2218/2223 9999 -SHRA SCT042 BKN060

超过4000个机场的气象观测和天气预报(METAR&TAF报告)。

可查询的气象台以黄色和红色小点在地图上表示。

将鼠标移到小点上方,可查看气象台名称。

然后点击查看天气观测和预报。

如需切换地图:点击带黑十字的绿色按钮放大地图;点击带横线的绿色按钮缩小地图;或者点击绿色箭头查看邻近地区的地图。


METAR-TAF: